Time;durP1;ratioP1;P1;durP2;ratioP2;P2;SDS_P1;SDS_P2;PMS_P1;PMS_P2;Temp;Humidity;BMP_temperature;BMP_pressure;BME280_temperature;BME280_humidity;BME280_pressure;Samples;Min_cycle;Max_cycle;Signal;HPM_P1;HPM_P2
2022/01/23 00:02:17;;;;;;;54.22;32.05;;;;;;;-144.47;100.00;61586.06;4979795;28;20122;-74
2022/01/23 00:04:43;;;;;;;58.40;36.35;;;;;;;-144.47;100.00;61586.06;4982550;28;20037;-75
2022/01/23 00:07:12;;;;;;;60.80;33.28;;;;;;;-144.47;100.00;61586.06;4980315;28;20081;-75
2022/01/23 00:09:38;;;;;;;58.08;32.80;;;;;;;-144.47;100.00;61586.06;4982248;28;20031;-75
2022/01/23 00:12:09;;;;;;;57.75;33.88;;;;;;;-144.47;100.00;61586.06;4981039;28;20034;-74
2022/01/23 00:17:23;;;;;;;62.42;33.47;;;;;;;-144.47;100.00;61586.06;4976299;28;20027;-74
2022/01/23 00:19:52;;;;;;;60.28;33.97;;;;;;;-144.47;100.00;61586.06;4976033;28;20045;-75
2022/01/23 00:22:26;;;;;;;58.53;32.53;;;;;;;-144.47;100.00;61586.06;4976065;28;20079;-74
2022/01/23 00:30:31;;;;;;;65.10;35.13;;;;;;;-144.47;100.00;61586.06;4976542;28;20101;-74
2022/01/23 00:33:01;;;;;;;57.25;33.40;;;;;;;-144.47;100.00;61586.06;4980696;28;20041;-75
2022/01/23 00:35:28;;;;;;;41.00;25.07;;;;;;;-144.47;100.00;61586.06;4978792;28;20468;-75
2022/01/23 00:37:54;;;;;;;60.78;34.40;;;;;;;-144.47;100.00;61586.06;4981912;28;20042;-76
2022/01/23 00:40:21;;;;;;;58.88;34.65;;;;;;;-144.47;100.00;61586.06;4979329;28;20046;-74
2022/01/23 00:42:47;;;;;;;62.63;36.33;;;;;;;-144.47;100.00;61586.06;4975341;28;20113;-75
2022/01/23 00:47:39;;;;;;;60.10;36.28;;;;;;;-144.47;100.00;61586.06;4979807;28;20038;-75
2022/01/23 00:50:05;;;;;;;62.00;33.88;;;;;;;-144.47;100.00;61586.06;4979535;28;20391;-74
2022/01/23 00:52:31;;;;;;;56.88;33.70;;;;;;;-144.47;100.00;61586.06;4979440;28;20062;-74
2022/01/23 00:54:57;;;;;;;62.78;35.00;;;;;;;-144.47;100.00;61586.06;4979175;28;20063;-74
2022/01/23 00:57:23;;;;;;;59.13;33.72;;;;;;;-144.47;100.00;61586.06;4979290;28;20101;-74
2022/01/23 00:59:48;;;;;;;63.35;34.92;;;;;;;-144.47;100.00;61586.06;4975750;28;20423;-76
2022/01/23 01:02:13;;;;;;;59.45;33.78;;;;;;;-144.47;100.00;61586.06;4979157;28;20233;-73
2022/01/23 01:04:39;;;;;;;59.20;33.75;;;;;;;-144.47;100.00;61586.06;4978356;28;20053;-74
2022/01/23 01:07:04;;;;;;;60.20;33.97;;;;;;;-144.47;100.00;61586.06;4980311;28;20085;-74
2022/01/23 01:09:31;;;;;;;52.28;32.33;;;;;;;-144.47;100.00;61586.06;4979548;28;20454;-74
2022/01/23 01:12:05;;;;;;;55.58;32.78;;;;;;;-144.47;100.00;61586.06;4978016;28;20035;-73
2022/01/23 01:17:05;;;;;;;60.63;34.90;;;;;;;-144.47;100.00;61586.06;4977464;28;20047;-74
2022/01/23 01:30:53;;;;;;;57.17;33.33;;;;;;;-144.47;100.00;61586.06;5008884;28;20047;-75
2022/01/23 01:33:31;;;;;;;;;;;;;;;-144.47;100.00;61586.06;4974353;28;20023;-73
2022/01/23 01:36:05;;;;;;;222.82;90.53;;;;;;;-144.47;100.00;61586.06;5011638;28;20366;-74
2022/01/23 01:38:32;;;;;;;153.43;65.60;;;;;;;-144.47;100.00;61586.06;4979686;28;20059;-72
2022/01/23 01:40:58;;;;;;;106.70;51.20;;;;;;;-144.47;100.00;61586.06;4979159;28;20509;-76
2022/01/23 01:43:26;;;;;;;76.47;38.15;;;;;;;-144.47;100.00;61586.06;4978773;28;20026;-75
2022/01/23 01:45:54;;;;;;;64.70;34.92;;;;;;;-144.47;100.00;61586.06;4985237;28;20093;-74
2022/01/23 01:48:24;;;;;;;68.10;36.08;;;;;;;-144.47;100.00;61586.06;4980660;28;20031;-74
2022/01/23 01:50:56;;;;;;;60.78;35.85;;;;;;;-144.47;100.00;61586.06;4977787;28;20414;-74
2022/01/23 01:53:25;;;;;;;65.03;37.28;;;;;;;-144.47;100.00;61586.06;4951110;23;1128560;-78
2022/01/23 01:55:55;;;;;;;67.95;36.05;;;;;;;-144.47;100.00;61586.06;4961501;28;20051;-79
2022/01/23 01:59:07;;;;;;;70.70;37.53;;;;;;;-144.47;100.00;61586.06;4981800;28;20031;-78
2022/01/23 02:10:10;;;;;;;66.75;37.13;;;;;;;-144.47;100.00;61586.06;4963193;28;20043;-81
2022/01/23 02:55:50;;;;;;;70.43;37.45;;;;;;;-144.47;100.00;61586.06;4982438;28;20041;-80
2022/01/23 02:58:17;;;;;;;66.88;37.92;;;;;;;-144.47;100.00;61586.06;4953120;28;20109;-79
2022/01/23 03:00:49;;;;;;;70.90;37.40;;;;;;;-144.47;100.00;61586.06;4971860;28;20403;-79
2022/01/23 03:03:37;;;;;;;69.05;37.85;;;;;;;-144.47;100.00;61586.06;4963298;28;20200;-81
2022/01/23 03:14:16;;;;;;;62.38;35.60;;;;;;;-144.47;100.00;61586.06;4962421;28;20039;-79
2022/01/23 03:25:10;;;;;;;64.45;35.47;;;;;;;-144.47;100.00;61586.06;4966763;28;20042;-79
2022/01/23 03:30:29;;;;;;;63.90;35.95;;;;;;;-144.47;100.00;61586.06;4958161;28;20055;-80
2022/01/23 03:32:55;;;;;;;66.32;35.45;;;;;;;-144.47;100.00;61586.06;4959597;28;20113;-78
2022/01/23 03:35:22;;;;;;;65.82;35.70;;;;;;;-144.47;100.00;61586.06;4955621;28;20062;-78
2022/01/23 03:37:49;;;;;;;64.00;38.08;;;;;;;-144.47;100.00;61586.06;4976468;28;20539;-79
2022/01/23 03:40:16;;;;;;;63.75;35.97;;;;;;;-144.47;100.00;61586.06;4965147;28;20039;-79
2022/01/23 03:42:44;;;;;;;64.45;35.55;;;;;;;-144.47;100.00;61586.06;4962271;28;20217;-79
2022/01/23 03:47:39;;;;;;;65.40;36.60;;;;;;;-144.47;100.00;61586.06;4961545;28;20041;-77
2022/01/23 03:50:08;;;;;;;60.13;35.08;;;;;;;-144.47;100.00;61586.06;4978298;28;20054;-78
2022/01/23 03:52:44;;;;;;;68.70;37.28;;;;;;;-144.47;100.00;61586.06;4965041;28;20126;-78
2022/01/23 03:55:11;;;;;;;62.78;34.92;;;;;;;-144.47;100.00;61586.06;4965086;28;20038;-79
2022/01/23 03:57:37;;;;;;;62.90;35.78;;;;;;;-144.47;100.00;61586.06;4961867;28;20039;-77
2022/01/23 04:00:05;;;;;;;61.85;36.13;;;;;;;-144.47;100.00;61586.06;4963080;28;20368;-79
2022/01/23 04:02:39;;;;;;;61.92;36.55;;;;;;;-144.47;100.00;61586.06;4962344;28;20038;-79
2022/01/23 04:05:05;;;;;;;62.92;35.45;;;;;;;-144.47;100.00;61586.06;4962048;28;20543;-79
2022/01/23 04:07:33;;;;;;;60.10;33.72;;;;;;;-144.47;100.00;61586.06;4964325;28;20106;-78
2022/01/23 04:09:59;;;;;;;62.95;34.92;;;;;;;-144.47;100.00;61586.06;4970646;28;20073;-79
2022/01/23 04:14:57;;;;;;;58.08;34.08;;;;;;;-144.47;100.00;61586.06;4964580;28;20039;-80
2022/01/23 05:00:35;;;;;;;53.80;31.13;;;;;;;-144.47;100.00;61586.06;4976613;28;20035;-78
2022/01/23 05:06:21;;;;;;;59.22;34.38;;;;;;;-144.47;100.00;61586.06;4960898;28;20046;-80
2022/01/23 05:08:53;;;;;;;61.53;32.88;;;;;;;-144.47;100.00;61586.06;4959713;28;20142;-79
2022/01/23 05:11:49;;;;;;;57.45;32.63;;;;;;;-144.47;100.00;61586.06;4959365;28;20060;-77
2022/01/23 05:14:28;;;;;;;58.42;32.65;;;;;;;-144.47;100.00;61586.06;4968139;28;20087;-80
2022/01/23 05:16:54;;;;;;;61.58;34.22;;;;;;;-144.47;100.00;61586.06;4964150;28;20039;-79
2022/01/23 05:19:20;;;;;;;59.47;35.45;;;;;;;-144.47;100.00;61586.06;4978061;28;20027;-80
2022/01/23 05:24:20;;;;;;;55.20;33.30;;;;;;;-144.47;100.00;61586.06;4971790;28;20154;-79
2022/01/23 05:26:47;;;;;;;57.75;33.97;;;;;;;-144.47;100.00;61586.06;4965377;28;20032;-78
2022/01/23 05:29:13;;;;;;;64.22;34.47;;;;;;;-144.47;100.00;61586.06;4966499;28;20031;-78
2022/01/23 05:31:39;;;;;;;58.83;33.50;;;;;;;-144.47;100.00;61586.06;4970067;28;20035;-80
2022/01/23 05:34:06;;;;;;;56.38;33.35;;;;;;;-144.47;100.00;61586.06;4965927;28;20031;-79
2022/01/23 05:36:32;;;;;;;60.97;33.63;;;;;;;-144.47;100.00;61586.06;4966401;28;20043;-80
2022/01/23 05:38:58;;;;;;;62.00;35.35;;;;;;;-144.47;100.00;61586.06;4949531;28;20031;-80
2022/01/23 05:41:25;;;;;;;57.47;32.90;;;;;;;-144.47;100.00;61586.06;4966140;28;20035;-78
2022/01/23 05:43:52;;;;;;;59.65;33.45;;;;;;;-144.47;100.00;61586.06;4967750;28;20495;-80
2022/01/23 05:46:18;;;;;;;56.33;32.58;;;;;;;-144.47;100.00;61586.06;4981257;28;20118;-79
2022/01/23 05:48:55;;;;;;;55.70;32.67;;;;;;;-144.47;100.00;61586.06;4978397;28;20164;-79
2022/01/23 05:51:53;;;;;;;61.65;33.50;;;;;;;-144.47;100.00;61586.06;4952424;28;20074;-79
2022/01/23 05:54:41;;;;;;;56.03;31.80;;;;;;;-144.47;100.00;61586.06;4968651;28;20126;-79
2022/01/23 05:57:25;;;;;;;53.88;32.25;;;;;;;-144.47;100.00;61586.06;4966446;28;20054;-79
2022/01/23 06:00:07;;;;;;;51.13;31.20;;;;;;;-144.47;100.00;61586.06;4967367;28;20926;-79
2022/01/23 06:02:50;;;;;;;55.47;32.05;;;;;;;-144.47;100.00;61586.06;4964253;28;20046;-79
2022/01/23 06:05:15;;;;;;;59.20;33.53;;;;;;;-144.47;100.00;61586.06;4970945;28;20506;-79
2022/01/23 06:07:52;;;;;;;57.70;31.83;;;;;;;-144.47;100.00;61586.06;4955578;28;20031;-79
2022/01/23 06:10:24;;;;;;;56.05;32.38;;;;;;;-144.47;100.00;61586.06;4979117;28;20118;-79
2022/01/23 06:12:50;;;;;;;60.10;32.67;;;;;;;-144.47;100.00;61586.06;4991428;28;20037;-79
2022/01/23 06:15:16;;;;;;;55.33;32.50;;;;;;;-144.47;100.00;61586.06;4998249;28;20035;-79
2022/01/23 06:17:43;;;;;;;55.20;31.65;;;;;;;-144.47;100.00;61586.06;4973326;28;20066;-78
2022/01/23 06:20:27;;;;;;;53.40;30.88;;;;;;;-144.47;100.00;61586.06;4967430;28;20531;-78
2022/01/23 06:23:12;;;;;;;57.35;31.83;;;;;;;-144.47;100.00;61586.06;4967978;28;20089;-80
2022/01/23 06:25:58;;;;;;;54.55;30.77;;;;;;;-144.47;100.00;61586.06;4965222;28;20042;-79
2022/01/23 06:28:47;;;;;;;58.47;31.67;;;;;;;-144.47;100.00;61586.06;4980606;28;20041;-79
2022/01/23 06:31:12;;;;;;;54.70;31.42;;;;;;;-144.47;100.00;61586.06;4971630;28;20042;-78
2022/01/23 06:33:38;;;;;;;53.28;31.25;;;;;;;-144.47;100.00;61586.06;4981977;28;20102;-79
2022/01/23 06:36:04;;;;;;;57.15;32.88;;;;;;;-144.47;100.00;61586.06;4974189;28;20062;-79
2022/01/23 06:38:32;;;;;;;60.03;33.30;;;;;;;-144.47;100.00;61586.06;4968602;28;20470;-79
2022/01/23 06:40:58;;;;;;;54.40;32.63;;;;;;;-144.47;100.00;61586.06;4975728;28;20053;-79
2022/01/23 06:43:44;;;;;;;54.95;31.70;;;;;;;-144.47;100.00;61586.06;4976645;28;20062;-79
2022/01/23 06:46:18;;;;;;;61.67;33.22;;;;;;;-144.47;100.00;61586.06;4987389;28;20434;-80
2022/01/23 06:48:43;;;;;;;58.60;31.67;;;;;;;-144.47;100.00;61586.06;4980068;28;20055;-78
2022/01/23 06:51:09;;;;;;;56.13;32.47;;;;;;;-144.47;100.00;61586.06;4974770;28;20030;-78
2022/01/23 06:53:35;;;;;;;60.72;33.85;;;;;;;-144.47;100.00;61586.06;4988677;28;20043;-78
2022/01/23 06:56:00;;;;;;;58.75;33.28;;;;;;;-144.47;100.00;61586.06;4980031;28;20066;-79
2022/01/23 06:58:26;;;;;;;56.80;31.98;;;;;;;-144.47;100.00;61586.06;4978093;28;20039;-77
2022/01/23 07:00:51;;;;;;;59.50;33.40;;;;;;;-144.47;100.00;61586.06;4983064;28;20044;-79
2022/01/23 07:03:17;;;;;;;62.83;32.75;;;;;;;-144.47;100.00;61586.06;4976707;28;20114;-80
2022/01/23 07:05:54;;;;;;;56.00;32.00;;;;;;;-144.47;100.00;61586.06;4971966;28;20043;-79
2022/01/23 07:08:32;;;;;;;57.90;33.10;;;;;;;-144.47;100.00;61586.06;4977614;28;20027;-79
2022/01/23 07:11:09;;;;;;;62.83;32.72;;;;;;;-144.47;100.00;61586.06;4988297;28;20031;-79
2022/01/23 07:14:02;;;;;;;65.97;33.20;;;;;;;-144.47;100.00;61586.06;4960443;28;20184;-77
2022/01/23 07:16:43;;;;;;;62.38;32.88;;;;;;;-144.47;100.00;61586.06;4983113;28;20031;-78
2022/01/23 07:19:11;;;;;;;57.80;32.67;;;;;;;-144.47;100.00;61586.06;4965860;28;20491;-79
2022/01/23 07:21:44;;;;;;;60.20;34.55;;;;;;;-144.47;100.00;61586.06;4973117;28;20026;-78
2022/01/23 07:24:09;;;;;;;60.83;33.67;;;;;;;-144.47;100.00;61586.06;4997026;28;20039;-76
2022/01/23 07:26:36;;;;;;;61.50;33.28;;;;;;;-144.47;100.00;61586.06;4978796;28;20090;-75
2022/01/23 07:29:04;;;;;;;59.90;32.88;;;;;;;-144.47;100.00;61586.06;4968820;28;20035;-78
2022/01/23 07:34:05;;;;;;;56.58;30.98;;;;;;;-144.47;100.00;61586.06;4982910;28;20464;-78
2022/01/23 07:36:30;;;;;;;62.53;32.83;;;;;;;-144.47;100.00;61586.06;4963238;28;20071;-80
2022/01/23 07:38:57;;;;;;;60.42;33.65;;;;;;;-144.47;100.00;61586.06;4977198;28;20031;-79
2022/01/23 07:41:32;;;;;;;58.70;32.78;;;;;;;-144.47;100.00;61586.06;4981116;28;20065;-79
2022/01/23 07:44:06;;;;;;;63.88;33.45;;;;;;;-144.47;100.00;61586.06;4978513;28;20074;-79
2022/01/23 07:47:04;;;;;;;66.45;36.13;;;;;;;-144.47;100.00;61586.06;4964649;28;20119;-80
2022/01/23 07:49:53;;;;;;;61.30;34.60;;;;;;;-144.47;100.00;61586.06;4959183;28;20047;-78
2022/01/23 07:52:35;;;;;;;58.65;32.65;;;;;;;-144.47;100.00;61586.06;4963342;28;20499;-79
2022/01/23 07:55:28;;;;;;;64.90;35.42;;;;;;;-144.47;100.00;61586.06;4958183;28;20044;-79
2022/01/23 07:58:15;;;;;;;64.82;35.78;;;;;;;-144.47;100.00;61586.06;4961059;28;20122;-78
2022/01/23 08:00:59;;;;;;;67.00;36.00;;;;;;;-144.47;100.00;61586.06;4963274;28;20046;-78
2022/01/23 08:03:25;;;;;;;62.58;33.45;;;;;;;-144.47;100.00;61586.06;4960606;28;20039;-79
2022/01/23 08:06:06;;;;;;;60.83;35.42;;;;;;;-144.47;100.00;61586.06;4978045;28;20034;-78
2022/01/23 08:08:32;;;;;;;64.07;34.88;;;;;;;-144.47;100.00;61586.06;4963350;28;20105;-74
2022/01/23 08:11:05;;;;;;;64.55;34.58;;;;;;;-144.47;100.00;61586.06;4962194;28;20037;-77
2022/01/23 08:13:30;;;;;;;61.42;35.25;;;;;;;-144.47;100.00;61586.06;4979988;28;20043;-78
2022/01/23 08:15:56;;;;;;;64.78;36.08;;;;;;;-144.47;100.00;61586.06;4959549;28;20439;-78
2022/01/23 08:18:22;;;;;;;64.10;35.67;;;;;;;-144.47;100.00;61586.06;4963611;28;20499;-78
2022/01/23 08:20:47;;;;;;;69.05;38.30;;;;;;;-144.47;100.00;61586.06;4951643;28;20463;-77
2022/01/23 08:23:18;;;;;;;63.63;36.63;;;;;;;-144.47;100.00;61586.06;4959628;28;20047;-77
2022/01/23 08:25:44;;;;;;;67.13;35.97;;;;;;;-144.47;100.00;61586.06;4960074;28;20057;-76
2022/01/23 08:28:10;;;;;;;66.40;36.65;;;;;;;-144.47;100.00;61586.06;4961074;28;20066;-74
2022/01/23 08:30:37;;;;;;;61.17;35.28;;;;;;;-144.47;100.00;61586.06;4958982;28;20049;-74
2022/01/23 08:33:03;;;;;;;64.38;36.40;;;;;;;-144.47;100.00;61586.06;4959554;28;20028;-75
2022/01/23 08:35:30;;;;;;;60.67;36.63;;;;;;;-144.47;100.00;61586.06;4959846;28;20046;-73
2022/01/23 08:37:56;;;;;;;64.72;36.70;;;;;;;-144.47;100.00;61586.06;4960656;28;20031;-74
2022/01/23 08:40:34;;;;;;;64.13;36.83;;;;;;;-144.47;100.00;61586.06;4962652;28;20497;-74
2022/01/23 08:43:01;;;;;;;63.15;37.17;;;;;;;-144.47;100.00;61586.06;4960876;28;20062;-76
2022/01/23 08:45:26;;;;;;;60.10;35.97;;;;;;;-144.47;100.00;61586.06;4979051;28;20387;-74
2022/01/23 08:47:52;;;;;;;67.13;36.13;;;;;;;-144.47;100.00;61586.06;4977729;28;20043;-76
2022/01/23 08:50:17;;;;;;;66.07;36.33;;;;;;;-144.47;100.00;61586.06;4963581;28;20041;-73
2022/01/23 08:52:43;;;;;;;59.80;35.72;;;;;;;-144.47;100.00;61586.06;4962440;28;20051;-72
2022/01/23 08:55:09;;;;;;;63.70;36.20;;;;;;;-144.47;100.00;61586.06;4966860;28;20152;-74
2022/01/23 08:57:34;;;;;;;66.20;35.83;;;;;;;-144.47;100.00;61586.06;4965825;28;20507;-73
2022/01/23 09:00:00;;;;;;;68.47;39.00;;;;;;;-144.47;100.00;61586.06;4965080;28;20042;-75
2022/01/23 09:02:27;;;;;;;55.45;36.55;;;;;;;-144.47;100.00;61586.06;4965416;28;20038;-73
2022/01/23 09:04:53;;;;;;;58.58;35.53;;;;;;;-144.47;100.00;61586.06;4965846;28;20145;-75
2022/01/23 09:07:18;;;;;;;64.55;36.00;;;;;;;-144.47;100.00;61586.06;4966784;28;20538;-73
2022/01/23 09:09:44;;;;;;;63.33;35.72;;;;;;;-144.47;100.00;61586.06;4981628;28;20027;-73
2022/01/23 09:12:30;;;;;;;63.47;36.80;;;;;;;-144.47;100.00;61586.06;4965270;28;20550;-74
2022/01/23 09:14:56;;;;;;;64.38;34.78;;;;;;;-144.47;100.00;61586.06;4965503;28;20035;-74
2022/01/23 09:17:21;;;;;;;61.60;35.75;;;;;;;-144.47;100.00;61586.06;4964222;28;20507;-72
2022/01/23 09:19:47;;;;;;;68.90;38.05;;;;;;;-144.47;100.00;61586.06;4976560;28;20046;-73
2022/01/23 09:22:14;;;;;;;64.55;36.75;;;;;;;-144.47;100.00;61586.06;4965865;28;20054;-75
2022/01/23 09:24:40;;;;;;;64.22;36.92;;;;;;;-144.47;100.00;61586.06;4969223;28;20074;-73
2022/01/23 09:27:08;;;;;;;65.10;37.97;;;;;;;-144.47;100.00;61586.06;4965553;28;20502;-75
2022/01/23 09:29:40;;;;;;;71.32;37.85;;;;;;;-144.47;100.00;61586.06;4963465;28;20038;-74
2022/01/23 09:32:14;;;;;;;69.72;37.35;;;;;;;-144.47;100.00;61586.06;4965255;28;20039;-73
2022/01/23 09:34:42;;;;;;;66.45;38.85;;;;;;;-144.47;100.00;61586.06;4966785;28;20042;-73
2022/01/23 09:37:10;;;;;;;64.25;38.47;;;;;;;-144.47;100.00;61586.06;4963955;28;20581;-75
2022/01/23 09:39:37;;;;;;;71.15;39.38;;;;;;;-144.47;100.00;61586.06;4966774;28;20032;-78
2022/01/23 09:42:11;;;;;;;71.40;40.50;;;;;;;-144.47;100.00;61586.06;4964661;28;20027;-79
2022/01/23 09:45:05;;;;;;;72.32;39.72;;;;;;;-144.47;100.00;61586.06;4967317;28;20415;-76
2022/01/23 09:47:31;;;;;;;65.18;38.08;;;;;;;-144.47;100.00;61586.06;4964816;28;20054;-73
2022/01/23 09:50:00;;;;;;;70.50;40.00;;;;;;;-144.47;100.00;61586.06;4964886;28;20031;-73
2022/01/23 09:52:32;;;;;;;73.05;40.90;;;;;;;-144.47;100.00;61586.06;4965347;28;20379;-74
2022/01/23 09:55:01;;;;;;;72.70;40.85;;;;;;;-144.47;100.00;61586.06;4963695;28;20028;-75
2022/01/23 09:57:30;;;;;;;70.93;42.17;;;;;;;-144.47;100.00;61586.06;4964688;28;20252;-76
2022/01/23 09:59:58;;;;;;;71.85;42.72;;;;;;;-144.47;100.00;61586.06;4963783;28;20038;-76
2022/01/23 10:02:23;;;;;;;70.57;41.58;;;;;;;-144.47;100.00;61586.06;4966682;28;20031;-76
2022/01/23 10:04:52;;;;;;;69.03;39.60;;;;;;;-144.47;100.00;61586.06;4962717;28;20391;-75
2022/01/23 10:07:20;;;;;;;73.78;39.55;;;;;;;-144.47;100.00;61586.06;4959261;28;20031;-77
2022/01/23 10:09:52;;;;;;;74.28;41.38;;;;;;;-144.47;100.00;61586.06;4963460;28;20408;-75
2022/01/23 10:12:19;;;;;;;78.20;43.10;;;;;;;-144.47;100.00;61586.06;4963554;28;20090;-75
2022/01/23 10:14:44;;;;;;;76.90;43.53;;;;;;;-144.47;100.00;61586.06;4966151;28;20106;-76
2022/01/23 10:17:10;;;;;;;81.53;44.30;;;;;;;-144.47;100.00;61586.06;4997606;28;20531;-76
2022/01/23 10:19:35;;;;;;;81.32;44.38;;;;;;;-144.47;100.00;61586.06;4964267;28;20103;-75
2022/01/23 10:22:03;;;;;;;86.00;46.35;;;;;;;-144.47;100.00;61586.06;4963482;28;20054;-75
2022/01/23 10:24:29;;;;;;;84.07;46.03;;;;;;;-144.47;100.00;61586.06;4965366;28;20069;-78
2022/01/23 10:26:57;;;;;;;87.57;47.40;;;;;;;-144.47;100.00;61586.06;4962828;28;20071;-75
2022/01/23 10:29:25;;;;;;;95.47;50.00;;;;;;;-144.47;100.00;61586.06;4966887;28;20511;-77
2022/01/23 10:32:04;;;;;;;93.15;47.95;;;;;;;-144.47;100.00;61586.06;4978395;28;20115;-75
2022/01/23 10:35:00;;;;;;;86.43;47.40;;;;;;;-144.47;100.00;61586.06;4962099;28;20126;-76
2022/01/23 10:37:35;;;;;;;91.65;48.97;;;;;;;-144.47;100.00;61586.06;4951900;28;20051;-75
2022/01/23 10:40:10;;;;;;;90.85;50.53;;;;;;;-144.47;100.00;61586.06;4964782;28;20031;-75
2022/01/23 10:47:55;;;;;;;89.47;46.42;;;;;;;-144.47;100.00;61586.06;4962860;28;20035;-76
2022/01/23 10:50:22;;;;;;;91.95;47.53;;;;;;;-144.47;100.00;61586.06;4971580;28;20030;-75
2022/01/23 10:52:51;;;;;;;94.88;49.03;;;;;;;-144.47;100.00;61586.06;4971541;28;20047;-75
2022/01/23 10:55:47;;;;;;;89.65;48.83;;;;;;;-144.47;100.00;61586.06;4962444;28;20432;-76
2022/01/23 10:58:21;;;;;;;84.90;47.40;;;;;;;-144.47;100.00;61586.06;4956886;28;20531;-76
2022/01/23 11:00:46;;;;;;;86.60;48.05;;;;;;;-144.47;100.00;61586.06;4961482;28;20022;-76
2022/01/23 11:03:22;;;;;;;86.15;48.70;;;;;;;-144.47;100.00;61586.06;4964955;28;20459;-76
2022/01/23 11:05:50;;;;;;;86.47;46.83;;;;;;;-144.47;100.00;61586.06;4957488;28;20161;-75
2022/01/23 11:08:21;;;;;;;87.10;47.80;;;;;;;-144.47;100.00;61586.06;4962945;28;20031;-76
2022/01/23 11:11:07;;;;;;;89.20;48.58;;;;;;;-144.47;100.00;61586.06;4957844;28;20055;-76
2022/01/23 11:19:19;;;;;;;87.45;46.38;;;;;;;-144.47;100.00;61586.06;4957623;28;20038;-75
2022/01/23 11:21:45;;;;;;;86.90;47.80;;;;;;;-144.47;100.00;61586.06;4963406;28;20042;-75
2022/01/23 11:24:12;;;;;;;89.90;49.45;;;;;;;-144.47;100.00;61586.06;4961826;28;20027;-76
2022/01/23 11:26:38;;;;;;;84.60;48.70;;;;;;;-144.47;100.00;61586.06;4963731;28;20118;-77
2022/01/23 11:29:12;;;;;;;92.68;50.20;;;;;;;-144.47;100.00;61586.06;4961423;28;20070;-76
2022/01/23 11:31:39;;;;;;;89.97;48.60;;;;;;;-144.47;100.00;61586.06;4963755;28;20027;-75
2022/01/23 11:34:09;;;;;;;90.25;50.88;;;;;;;-144.47;100.00;61586.06;4961599;28;20046;-76
2022/01/23 11:36:35;;;;;;;91.72;50.33;;;;;;;-144.47;100.00;61586.06;4967239;28;20075;-78
2022/01/23 11:39:08;;;;;;;84.13;47.83;;;;;;;-144.47;100.00;61586.06;4967631;28;20031;-76
2022/01/23 11:55:41;;;;;;;85.80;48.35;;;;;;;-144.47;100.00;61586.06;4960806;28;20035;-78
2022/01/23 11:58:07;;;;;;;86.13;48.20;;;;;;;-144.47;100.00;61586.06;4961498;28;20506;-77
2022/01/23 12:00:36;;;;;;;84.60;49.00;;;;;;;-144.47;100.00;61586.06;4945464;28;20233;-77
2022/01/23 12:03:15;;;;;;;83.20;46.70;;;;;;;-144.47;100.00;61586.06;4963097;28;20037;-77
2022/01/23 12:05:45;;;;;;;85.90;47.90;;;;;;;-144.47;100.00;61586.06;4963713;28;20384;-77
2022/01/23 12:08:19;;;;;;;87.70;49.13;;;;;;;-144.47;100.00;61586.06;4961065;28;20134;-77
2022/01/23 12:19:11;;;;;;;85.88;47.90;;;;;;;-144.47;100.00;61586.06;4952675;28;20035;-78
2022/01/23 12:21:37;;;;;;;85.95;48.67;;;;;;;-144.47;100.00;61586.06;4945587;28;20126;-77
2022/01/23 12:24:06;;;;;;;85.88;47.95;;;;;;;-144.47;100.00;61586.06;4960249;28;20058;-77
2022/01/23 12:26:32;;;;;;;84.90;47.95;;;;;;;-144.47;100.00;61586.06;4963083;28;20454;-78
2022/01/23 12:29:14;;;;;;;80.22;48.40;;;;;;;-144.47;100.00;61586.06;4960973;28;20086;-78
2022/01/23 12:31:40;;;;;;;86.35;48.45;;;;;;;-144.47;100.00;61586.06;4960209;28;20549;-77
2022/01/23 12:34:06;;;;;;;87.05;47.45;;;;;;;-144.47;100.00;61586.06;4960335;28;20031;-78
2022/01/23 12:36:34;;;;;;;89.00;49.85;;;;;;;-144.47;100.00;61586.06;4960008;28;20093;-77
2022/01/23 12:39:06;;;;;;;83.03;47.83;;;;;;;-144.47;100.00;61586.06;4960823;28;20098;-78
2022/01/23 12:41:52;;;;;;;88.75;49.85;;;;;;;-144.47;100.00;61586.06;4962496;28;20043;-77
2022/01/23 12:44:24;;;;;;;83.03;48.38;;;;;;;-144.47;100.00;61586.06;4987676;28;20365;-76
2022/01/23 12:46:52;;;;;;;83.03;47.72;;;;;;;-144.47;100.00;61586.06;4994481;28;20038;-78
2022/01/23 12:49:26;;;;;;;81.95;48.97;;;;;;;-144.47;100.00;61586.06;4956972;28;20488;-77
2022/01/23 12:52:02;;;;;;;79.72;47.88;;;;;;;-144.47;100.00;61586.06;4957246;28;20035;-77
2022/01/23 12:54:30;;;;;;;82.22;48.47;;;;;;;-144.47;100.00;61586.06;4988823;28;20049;-76
2022/01/23 12:57:04;;;;;;;84.72;48.08;;;;;;;-144.47;100.00;61586.06;4960274;28;20427;-77
2022/01/23 12:59:33;;;;;;;82.18;47.08;;;;;;;-144.47;100.00;61586.06;4962705;28;20050;-77
2022/01/23 13:02:08;;;;;;;86.82;49.13;;;;;;;-144.47;100.00;61586.06;4960890;28;20039;-77
2022/01/23 13:04:38;;;;;;;84.10;49.25;;;;;;;-144.47;100.00;61586.06;4962794;28;20132;-77
2022/01/23 13:07:15;;;;;;;79.60;47.72;;;;;;;-144.47;100.00;61586.06;4960314;28;20176;-77
2022/01/23 13:10:05;;;;;;;81.65;45.35;;;;;;;-144.47;100.00;61586.06;4960322;28;20031;-77
2022/01/23 13:12:49;;;;;;;80.50;49.10;;;;;;;-144.47;100.00;61586.06;4957545;28;20105;-77
2022/01/23 13:34:20;;;;;;;82.93;47.75;;;;;;;-144.47;100.00;61586.06;4959284;28;20041;-76
2022/01/23 13:36:53;;;;;;;83.75;49.67;;;;;;;-144.47;100.00;61586.06;4965698;28;20118;-77
2022/01/23 13:39:24;;;;;;;87.45;50.53;;;;;;;-144.47;100.00;61586.06;4973273;28;20051;-78
2022/01/23 13:42:01;;;;;;;84.32;49.55;;;;;;;-144.47;100.00;61586.06;4962130;28;20027;-78
2022/01/23 13:53:25;;;;;;;88.97;49.95;;;;;;;-144.47;100.00;61586.06;4904473;29;20052;-76
2022/01/23 13:58:38;;;;;;;78.88;48.20;;;;;;;-144.47;100.00;61586.06;4903630;29;20044;-75
2022/01/23 14:04:06;;;;;;;83.32;47.28;;;;;;;-144.47;100.00;61586.06;4883805;29;20100;-76
2022/01/23 14:06:31;;;;;;;80.32;48.88;;;;;;;-144.47;100.00;61586.06;4905278;29;20453;-75
2022/01/23 14:09:08;;;;;;;91.57;49.58;;;;;;;-144.47;100.00;61586.06;4905786;29;20119;-75
2022/01/23 14:11:34;;;;;;;83.00;48.10;;;;;;;-144.47;100.00;61586.06;4905304;29;20188;-76
2022/01/23 14:14:18;;;;;;;85.65;50.00;;;;;;;-144.47;100.00;61586.06;4905707;29;20139;-76
2022/01/23 14:16:46;;;;;;;84.15;47.40;;;;;;;-144.47;100.00;61586.06;4905783;29;20194;-76
2022/01/23 14:19:18;;;;;;;80.97;49.00;;;;;;;-144.47;100.00;61586.06;4903590;29;20047;-78
2022/01/23 14:21:46;;;;;;;87.03;50.33;;;;;;;-144.47;100.00;61586.06;4906056;29;20068;-77
2022/01/23 14:24:19;;;;;;;90.72;51.88;;;;;;;-144.47;100.00;61586.06;4938360;28;20404;-76
2022/01/23 14:27:08;;;;;;;86.53;49.58;;;;;;;-144.47;100.00;61586.06;4965994;28;20039;-77
2022/01/23 14:29:54;;;;;;;84.28;48.47;;;;;;;-144.47;100.00;61586.06;4962103;28;20039;-76
2022/01/23 14:32:25;;;;;;;87.13;48.25;;;;;;;-144.47;100.00;61586.06;4960566;28;20049;-76
2022/01/23 14:35:01;;;;;;;87.45;51.08;;;;;;;-144.47;100.00;61586.06;4958930;28;20039;-76
2022/01/23 14:37:27;;;;;;;89.18;47.40;;;;;;;-144.47;100.00;61586.06;4960494;28;20118;-76
2022/01/23 14:40:07;;;;;;;91.43;49.50;;;;;;;-144.47;100.00;61586.06;4965772;28;20089;-76
2022/01/23 14:42:33;;;;;;;91.38;50.55;;;;;;;-144.47;100.00;61586.06;4965218;28;20053;-76
2022/01/23 14:45:03;;;;;;;88.68;51.28;;;;;;;-144.47;100.00;61586.06;4969430;28;20055;-77
2022/01/23 14:47:34;;;;;;;90.37;50.10;;;;;;;-144.47;100.00;61586.06;4970112;28;20137;-78
2022/01/23 14:50:01;;;;;;;87.53;49.28;;;;;;;-144.47;100.00;61586.06;4971968;28;20087;-76
2022/01/23 14:52:27;;;;;;;83.25;50.58;;;;;;;-144.47;100.00;61586.06;4975889;28;20035;-78